Hlavní strana
METAR-TAF:

METAR-TAF

Letiště :

Crossville Memorial Airport (Whitson Field)

Crossville, Tennessee, Spojené státy americké

zeměpisná šířka: 35-57-05N, zeměpisná délka: 085-05-06W, výška: 573 m

Aktuální stav počasí

Zpráva byla vytvořena před 57 minutami, v 07:53 UTC
Bezvětří
Teplota 2°C
Vlhkost vzduchu 93%
Tlak 1024 hPa
Viditelnost: 8.0 km
Jasno
kouřmo

METAR: KCSV 080753Z AUTO 00000KT 5SM BR CLR 02/01 A3024 RMK AO2 SLP243 T00220006

Čas: 03:50 (08:50 UTC)

Předpověď počasí

Zpráva byla vytvořena před 29 minutami, v 08:21 UTC
Předpověď platná od 08 v 08 UTC do 09 v 06 UTC
Severní vítr kt
Viditelnost: 8.0 km
Jasno
kouřmo
Dočasný
od 08 v 08 UTC do 08 v 11 UTC
Viditelnost: 6.4 km
kouřmo, zákal
Od 08 v 1300 UTC
Jihojihovýchodní vítr 11 kt s nárazy do 18 kt
Viditelnost: 10 km
Oblačno až skoro zataženo ve výšce 4000 ft

TAF: KCSV 080821Z 0808/0906 00000KT 5SM BR SKC TEMPO 0808/0811 4SM BR HZ FM081300 16011G18KT P6SM BKN040

Stav a předpovědi počasí z více než 4 000 letišť (zprávy METAR a TAF).

Červené a žluté tečky na mapě představují dostupné meteorologické stanice.

Když kurzor umístíte na tečku, zobrazí se název stanice.

Pak kliknutím zobrazíte stav a předpověď počasí.

Chcete-li změnit mapu, kliknutím na zelené tlačítko se znaménkem +mapu přiblížíte, kliknutím na zelené tlačítko se znaménkem – mapu oddálíte a kliknutím na zelené šipky přejdete na sousední mapy.


METAR-TAF: